Time;durP1;ratioP1;P1;durP2;ratioP2;P2;SDS_P1;SDS_P2;PMS_P1;PMS_P2;Temp;Humidity;BMP_temperature;BMP_pressure;BME280_temperature;BME280_humidity;BME280_pressure;Samples;Min_cycle;Max_cycle;Signal;HPM_P1;HPM_P2
2022/02/26 00:00:43;;;;;;;9.03;3.50;;;;;;;-145.69;100.00;73759.09;5072254;28;20207;-79
2022/02/26 00:03:10;;;;;;;7.87;3.20;;;;;;;-145.69;100.00;73767.06;5069443;28;20210;-78
2022/02/26 00:05:36;;;;;;;8.00;3.03;;;;;;;-145.69;100.00;73765.06;5075753;28;20653;-78
2022/02/26 00:08:03;;;;;;;8.93;2.77;;;;;;;-145.69;100.00;73775.00;5090010;28;20261;-79
2022/02/26 00:10:29;;;;;;;6.73;3.17;;;;;;;-145.69;100.00;73773.03;5096166;28;20200;-78
2022/02/26 00:12:59;;;;;;;13.30;3.67;;;;;;;-145.69;100.00;73765.06;5078739;28;20604;-79
2022/02/26 00:15:25;;;;;;;16.50;4.30;;;;;;;-145.69;100.00;73775.00;5094679;28;20198;-79
2022/02/26 00:17:52;;;;;;;9.87;4.13;;;;;;;-145.69;100.00;73777.00;5095231;28;20230;-78
2022/02/26 00:20:18;;;;;;;15.53;3.77;;;;;;;-145.69;100.00;73777.00;5095426;28;20245;-79
2022/02/26 00:22:44;;;;;;;9.53;4.20;;;;;;;-145.69;100.00;73781.00;5095778;28;20202;-79
2022/02/26 00:25:12;;;;;;;11.47;3.60;;;;;;;-145.69;100.00;73773.03;5095449;28;20205;-79
2022/02/26 00:27:39;;;;;;;10.07;4.07;;;;;;;-145.69;100.00;73767.06;5095915;28;20212;-79
2022/02/26 00:30:08;;;;;;;8.13;3.23;;;;;;;-145.69;100.00;73767.06;5095467;28;20724;-79
2022/02/26 00:32:34;;;;;;;8.13;3.70;;;;;;;-145.69;100.00;73777.00;5095785;28;20213;-79
2022/02/26 00:35:01;;;;;;;5.63;3.40;;;;;;;-145.69;100.00;73781.00;5095403;28;20259;-79
2022/02/26 00:37:27;;;;;;;10.60;3.70;;;;;;;-145.69;100.00;73781.00;5083755;28;20222;-78
2022/02/26 00:39:54;;;;;;;8.40;3.60;;;;;;;-145.69;100.00;73788.94;5074884;28;20203;-78
2022/02/26 00:42:20;;;;;;;7.70;3.53;;;;;;;-145.69;100.00;73798.91;5075336;28;20198;-79
2022/02/26 00:44:47;;;;;;;10.27;3.90;;;;;;;-145.69;100.00;73800.91;5074957;28;20685;-78
2022/02/26 00:47:14;;;;;;;7.97;3.60;;;;;;;-145.69;100.00;73796.91;5076363;28;20210;-79
2022/02/26 00:49:50;;;;;;;8.77;3.97;;;;;;;-145.69;100.00;73784.97;5075007;28;20210;-79
2022/02/26 00:52:19;;;;;;;10.70;4.40;;;;;;;-145.69;100.00;73784.97;5075017;28;20198;-79
2022/02/26 00:54:46;;;;;;;8.57;4.00;;;;;;;-145.69;100.00;73782.97;5073688;28;20210;-79
2022/02/26 00:57:12;;;;;;;10.60;3.90;;;;;;;-145.69;100.00;73794.94;5075149;28;20253;-80
2022/02/26 00:59:39;;;;;;;9.90;4.53;;;;;;;-145.69;100.00;73782.97;5075086;28;20551;-80
2022/02/26 01:02:07;;;;;;;8.73;3.63;;;;;;;-145.69;100.00;73782.97;5074525;28;20210;-79
2022/02/26 01:04:35;;;;;;;8.80;4.17;;;;;;;-145.69;100.00;73779.00;5074871;28;20202;-79
2022/02/26 01:07:02;;;;;;;10.83;3.90;;;;;;;-145.69;100.00;73777.00;5079889;28;20198;-79
2022/02/26 01:09:28;;;;;;;4.37;3.20;;;;;;;-145.69;100.00;73779.00;5094666;28;20205;-79
2022/02/26 01:11:55;;;;;;;8.30;3.53;;;;;;;-145.69;100.00;73792.94;5094997;28;20205;-79
2022/02/26 01:14:22;;;;;;;8.80;3.83;;;;;;;-145.69;100.00;73786.97;5094638;28;20202;-79
2022/02/26 01:16:48;;;;;;;6.33;3.50;;;;;;;-145.69;100.00;73798.91;5094830;28;20229;-79
2022/02/26 01:19:15;;;;;;;10.67;3.70;;;;;;;-145.69;100.00;73800.91;5094789;28;20209;-79
2022/02/26 01:21:43;;;;;;;11.57;3.47;;;;;;;-145.69;100.00;73796.91;5094764;28;20216;-79
2022/02/26 01:24:10;;;;;;;13.50;3.90;;;;;;;-145.69;100.00;73802.88;5094904;28;20251;-79
2022/02/26 01:26:37;;;;;;;10.97;3.97;;;;;;;-145.69;100.00;73806.88;5094999;28;20206;-79
2022/02/26 01:29:04;;;;;;;11.73;3.73;;;;;;;-145.69;100.00;73808.88;5094490;28;20198;-79
2022/02/26 01:31:30;;;;;;;13.60;4.50;;;;;;;-145.69;100.00;73790.94;5094717;28;20206;-79
2022/02/26 01:33:57;;;;;;;11.73;4.17;;;;;;;-145.69;100.00;73792.94;5094478;28;20247;-79
2022/02/26 01:36:24;;;;;;;12.60;3.70;;;;;;;-145.69;100.00;73788.94;5093657;28;20251;-80
2022/02/26 01:38:52;;;;;;;14.80;4.40;;;;;;;-145.69;100.00;73790.94;5094130;28;20194;-79
2022/02/26 01:41:19;;;;;;;7.70;3.53;;;;;;;-145.69;100.00;73788.94;5094479;28;20213;-79
2022/02/26 01:43:46;;;;;;;8.53;3.77;;;;;;;-145.69;100.00;73781.00;5094494;28;20205;-79
2022/02/26 01:46:13;;;;;;;6.43;3.03;;;;;;;-145.69;100.00;73775.00;5094420;28;20200;-79
2022/02/26 01:48:40;;;;;;;11.70;3.70;;;;;;;-145.69;100.00;73769.03;5094108;28;20727;-79
2022/02/26 01:51:09;;;;;;;7.13;3.17;;;;;;;-145.69;100.00;73779.00;5094463;28;20225;-79
2022/02/26 01:53:36;;;;;;;7.90;3.60;;;;;;;-145.69;100.00;73782.97;5094355;28;20206;-79
2022/02/26 01:56:06;;;;;;;15.57;4.10;;;;;;;-145.69;100.00;73792.94;5094169;28;20244;-79
2022/02/26 01:58:33;;;;;;;8.07;3.57;;;;;;;-145.69;100.00;73786.97;5094098;28;20202;-80
2022/02/26 02:01:00;;;;;;;10.90;3.50;;;;;;;-145.69;100.00;73790.94;5092822;28;20198;-79
2022/02/26 02:03:26;;;;;;;8.73;3.77;;;;;;;-145.69;100.00;73775.00;5093390;28;20204;-79
2022/02/26 02:05:55;;;;;;;12.90;3.63;;;;;;;-145.69;100.00;73782.97;5094197;28;20198;-79
2022/02/26 02:08:21;;;;;;;8.00;3.57;;;;;;;-145.69;100.00;73796.91;5076758;28;20226;-79
2022/02/26 02:10:50;;;;;;;12.27;3.57;;;;;;;-145.69;100.00;73798.91;5073689;28;20203;-79
2022/02/26 02:13:19;;;;;;;13.30;3.80;;;;;;;-145.69;100.00;73794.94;5073462;28;20199;-78
2022/02/26 02:15:46;;;;;;;8.40;4.53;;;;;;;-145.69;100.00;73806.88;5073375;28;20566;-78
2022/02/26 02:18:14;;;;;;;11.17;4.17;;;;;;;-145.69;100.00;73802.88;5076504;28;20629;-79
2022/02/26 02:20:42;;;;;;;9.57;4.13;;;;;;;-145.69;100.00;73812.84;5093029;28;20194;-79
2022/02/26 02:23:10;;;;;;;14.47;4.00;;;;;;;-145.69;100.00;73818.81;5093641;28;20202;-79
2022/02/26 02:25:38;;;;;;;9.27;4.17;;;;;;;-145.69;100.00;73818.81;5092817;28;20202;-78
2022/02/26 02:28:06;;;;;;;9.50;4.50;;;;;;;-145.69;100.00;73818.81;5093322;28;20206;-79
2022/02/26 02:30:33;;;;;;;11.10;3.87;;;;;;;-145.69;100.00;73808.88;5091000;28;20206;-78
2022/02/26 02:33:00;;;;;;;9.40;3.80;;;;;;;-145.69;100.00;73816.81;5072979;28;20817;-79
2022/02/26 02:35:30;;;;;;;12.80;3.80;;;;;;;-145.69;100.00;73818.81;5073214;28;20205;-80
2022/02/26 02:37:57;;;;;;;10.43;4.30;;;;;;;-145.69;100.00;73814.84;5073117;28;20226;-78
2022/02/26 02:40:26;;;;;;;8.93;3.80;;;;;;;-145.69;100.00;73804.88;5073056;28;20207;-79
2022/02/26 02:42:53;;;;;;;11.90;4.43;;;;;;;-145.69;100.00;73812.84;5072900;28;20210;-78
2022/02/26 02:45:23;;;;;;;10.77;4.33;;;;;;;-145.69;100.00;73800.91;5073142;28;20260;-79
2022/02/26 02:47:50;;;;;;;8.50;4.43;;;;;;;-145.69;100.00;73798.91;5073118;28;20199;-79
2022/02/26 02:50:17;;;;;;;10.53;4.27;;;;;;;-145.69;100.00;73792.94;5090789;28;20251;-79
2022/02/26 02:52:45;;;;;;;11.60;5.10;;;;;;;-145.69;100.00;73796.91;5093031;28;20649;-79
2022/02/26 02:55:14;;;;;;;9.70;3.90;;;;;;;-145.69;100.00;73779.00;5092890;28;20667;-79
2022/02/26 02:57:43;;;;;;;8.53;4.00;;;;;;;-145.69;100.00;73790.94;5093159;28;20237;-79
2022/02/26 03:00:11;;;;;;;9.33;3.93;;;;;;;-145.69;100.00;73802.88;5092854;28;20209;-79
2022/02/26 03:02:37;;;;;;;13.40;4.20;;;;;;;-145.69;100.00;73802.88;5092959;28;20301;-79
2022/02/26 03:05:05;;;;;;;14.57;5.07;;;;;;;-145.69;100.00;73822.81;5091721;28;20205;-79
2022/02/26 03:07:31;;;;;;;13.07;5.13;;;;;;;-145.69;100.00;73830.75;5092786;28;20237;-79
2022/02/26 03:09:58;;;;;;;9.77;4.30;;;;;;;-145.69;100.00;73826.78;5092829;28;20201;-80
2022/02/26 03:12:24;;;;;;;14.63;4.43;;;;;;;-145.69;100.00;73834.75;5090265;28;20198;-79
2022/02/26 03:14:52;;;;;;;13.20;5.13;;;;;;;-145.69;100.00;73838.72;5072785;28;20194;-79
2022/02/26 03:17:18;;;;;;;13.87;4.70;;;;;;;-145.69;100.00;73834.75;5072630;28;20222;-78
2022/02/26 03:19:49;;;;;;;16.93;5.07;;;;;;;-145.69;100.00;73834.75;5072821;28;20638;-79
2022/02/26 03:22:15;;;;;;;14.57;5.07;;;;;;;-145.69;100.00;73836.75;5072646;28;20560;-79
2022/02/26 03:24:42;;;;;;;13.00;4.40;;;;;;;-145.69;100.00;73834.75;5072423;28;20562;-79
2022/02/26 03:27:08;;;;;;;11.60;4.57;;;;;;;-145.69;100.00;73840.72;5072590;28;20206;-79
2022/02/26 03:29:35;;;;;;;11.77;4.70;;;;;;;-145.69;100.00;73846.69;5072512;28;20221;-79
2022/02/26 03:32:03;;;;;;;17.47;4.70;;;;;;;-145.69;100.00;73840.72;5072514;28;20289;-80
2022/02/26 03:34:30;;;;;;;14.20;4.93;;;;;;;-145.69;100.00;73836.75;5072462;28;20199;-79
2022/02/26 03:36:57;;;;;;;14.03;4.60;;;;;;;-145.69;100.00;73846.69;5074604;28;20214;-80
2022/02/26 03:39:24;;;;;;;12.30;4.50;;;;;;;-145.69;100.00;73846.69;5076580;28;20207;-80
2022/02/26 03:41:52;;;;;;;13.73;4.67;;;;;;;-145.69;100.00;73842.72;5076350;28;20194;-79
2022/02/26 03:44:19;;;;;;;13.20;5.10;;;;;;;-145.69;100.00;73838.72;5093052;28;20194;-79
2022/02/26 03:46:45;;;;;;;23.50;5.80;;;;;;;-145.69;100.00;73842.72;5096582;28;20198;-79
2022/02/26 03:49:15;;;;;;;11.23;4.77;;;;;;;-145.69;100.00;73836.75;5096477;28;20649;-78
2022/02/26 03:51:42;;;;;;;16.53;5.07;;;;;;;-145.69;100.00;73834.75;5096384;28;20202;-78
2022/02/26 03:54:08;;;;;;;17.97;5.67;;;;;;;-145.69;100.00;73832.75;5096571;28;20206;-79
2022/02/26 03:56:35;;;;;;;15.23;5.30;;;;;;;-145.69;100.00;73834.75;5096612;28;20202;-78
2022/02/26 03:59:01;;;;;;;14.20;4.60;;;;;;;-145.69;100.00;73832.75;5096231;28;20688;-78
2022/02/26 04:01:28;;;;;;;10.87;4.63;;;;;;;-145.69;100.00;73838.72;5096277;28;20209;-79
2022/02/26 04:03:55;;;;;;;17.07;4.73;;;;;;;-145.69;100.00;73842.72;5096069;28;20210;-79
2022/02/26 04:06:23;;;;;;;15.70;5.23;;;;;;;-145.69;100.00;73842.72;5096080;28;20199;-79
2022/02/26 04:08:49;;;;;;;14.77;4.47;;;;;;;-145.69;100.00;73848.69;5091912;28;20198;-79
2022/02/26 04:11:16;;;;;;;14.20;4.80;;;;;;;-145.69;100.00;73850.69;5095254;28;20205;-79
2022/02/26 04:13:42;;;;;;;17.07;5.23;;;;;;;-145.69;100.00;73854.66;5084223;28;20202;-79
2022/02/26 04:16:09;;;;;;;13.00;4.93;;;;;;;-145.69;100.00;73860.63;5075768;28;20202;-79
2022/02/26 04:18:36;;;;;;;9.43;4.50;;;;;;;-145.69;100.00;73854.66;5075293;28;20344;-79
2022/02/26 04:21:02;;;;;;;12.30;4.70;;;;;;;-145.69;100.00;73842.72;5075738;28;20199;-79
2022/02/26 04:23:30;;;;;;;10.07;4.60;;;;;;;-145.69;100.00;73850.69;5075575;28;20560;-79
2022/02/26 04:25:57;;;;;;;9.70;3.90;;;;;;;-145.69;100.00;73846.69;5075501;28;20538;-79
2022/02/26 04:28:23;;;;;;;17.63;4.80;;;;;;;-145.69;100.00;73856.66;5075331;28;20199;-79
2022/02/26 04:30:51;;;;;;;13.50;4.93;;;;;;;-145.69;100.00;73862.63;5075487;28;20199;-79
2022/02/26 04:33:17;;;;;;;12.33;4.90;;;;;;;-145.69;100.00;73870.59;5074668;28;20199;-79
2022/02/26 04:35:44;;;;;;;21.90;5.78;;;;;;;-145.69;100.00;73880.53;5074925;28;20441;-79
2022/02/26 04:38:10;;;;;;;11.90;3.97;;;;;;;-145.69;100.00;73880.53;5075396;28;20233;-79
2022/02/26 04:40:38;;;;;;;12.60;4.43;;;;;;;-145.69;100.00;73882.53;5075415;28;20202;-79
2022/02/26 04:43:05;;;;;;;11.10;4.60;;;;;;;-145.69;100.00;73860.63;5083778;28;20198;-79
2022/02/26 04:45:31;;;;;;;11.17;4.33;;;;;;;-145.69;100.00;73872.56;5095506;28;20245;-79
2022/02/26 04:47:58;;;;;;;11.40;5.17;;;;;;;-145.69;100.00;73882.53;5094523;28;20259;-79
2022/02/26 04:50:25;;;;;;;18.00;4.27;;;;;;;-145.69;100.00;73890.50;5095552;28;20248;-79
2022/02/26 04:52:51;;;;;;;16.33;5.70;;;;;;;-145.69;100.00;73882.53;5095449;28;20198;-79
2022/02/26 04:55:17;;;;;;;20.87;5.77;;;;;;;-145.69;100.00;73884.53;5095449;28;20198;-79
2022/02/26 04:57:47;;;;;;;16.37;4.90;;;;;;;-145.69;100.00;73888.50;5095151;28;20222;-78
2022/02/26 05:00:14;;;;;;;15.17;5.00;;;;;;;-145.69;100.00;73892.50;5095020;28;20202;-78
2022/02/26 05:02:41;;;;;;;17.13;5.33;;;;;;;-145.69;100.00;73902.44;5095210;28;20258;-78
2022/02/26 05:05:09;;;;;;;19.53;5.73;;;;;;;-145.69;100.00;73910.41;5095135;28;20202;-79
2022/02/26 05:07:36;;;;;;;21.10;5.67;;;;;;;-145.69;100.00;73912.41;5094654;28;20233;-79
2022/02/26 05:10:02;;;;;;;22.27;5.47;;;;;;;-145.69;100.00;73918.38;5094779;28;20228;-79
2022/02/26 05:12:29;;;;;;;14.63;5.60;;;;;;;-145.69;100.00;73922.34;5091198;28;20202;-79
2022/02/26 05:14:57;;;;;;;13.67;5.03;;;;;;;-145.69;100.00;73914.38;5074352;28;20649;-78
2022/02/26 05:17:23;;;;;;;16.77;5.57;;;;;;;-145.69;100.00;73918.38;5074776;28;20565;-78
2022/02/26 05:19:50;;;;;;;22.97;6.40;;;;;;;-145.69;100.00;73912.41;5074620;28;20209;-79
2022/02/26 05:22:16;;;;;;;14.60;6.07;;;;;;;-145.69;100.00;73924.34;5074565;28;20206;-79
2022/02/26 05:24:42;;;;;;;20.40;6.53;;;;;;;-145.69;100.00;73928.31;5074168;28;20210;-79
2022/02/26 05:27:09;;;;;;;18.63;6.03;;;;;;;-145.69;100.00;73926.34;5073230;28;20264;-79
2022/02/26 05:29:35;;;;;;;14.53;6.47;;;;;;;-145.69;100.00;73918.38;5074234;28;20206;-79
2022/02/26 05:32:04;;;;;;;23.93;5.57;;;;;;;-145.69;100.00;73920.38;5074193;28;20210;-79
2022/02/26 05:34:30;;;;;;;16.30;5.47;;;;;;;-145.69;100.00;73932.31;5074527;28;20207;-79
2022/02/26 05:36:57;;;;;;;21.37;6.13;;;;;;;-145.69;100.00;73926.34;5075287;28;20195;-80
2022/02/26 05:39:23;;;;;;;21.80;6.43;;;;;;;-145.69;100.00;73932.31;5074158;28;20641;-79
2022/02/26 05:41:50;;;;;;;15.23;5.40;;;;;;;-145.69;100.00;73934.31;5074095;28;20203;-79
2022/02/26 05:44:17;;;;;;;15.07;5.20;;;;;;;-145.69;100.00;73942.25;5073919;28;20210;-79
2022/02/26 05:46:43;;;;;;;19.17;7.20;;;;;;;-145.69;100.00;73944.25;5074230;28;20203;-80
2022/02/26 05:49:11;;;;;;;23.57;7.43;;;;;;;-145.69;100.00;73954.22;5074154;28;20194;-80
2022/02/26 05:51:37;;;;;;;26.07;8.20;;;;;;;-145.69;100.00;73954.22;5074047;28;20199;-80
2022/02/26 05:54:04;;;;;;;16.23;6.67;;;;;;;-145.69;100.00;73954.22;5073890;28;20203;-80
2022/02/26 05:56:30;;;;;;;20.53;6.67;;;;;;;-145.69;100.00;73960.19;5073786;28;20661;-80
2022/02/26 05:58:57;;;;;;;21.63;7.03;;;;;;;-145.69;100.00;73944.25;5073121;28;20770;-79
2022/02/26 06:01:23;;;;;;;13.47;5.07;;;;;;;-145.69;100.00;73956.19;5073175;28;20198;-79
2022/02/26 06:03:50;;;;;;;22.57;6.60;;;;;;;-145.69;100.00;73966.16;5073839;28;20248;-79
2022/02/26 06:06:18;;;;;;;27.17;6.50;;;;;;;-145.69;100.00;73962.19;5073748;28;20203;-80
2022/02/26 06:08:45;;;;;;;24.47;6.83;;;;;;;-145.69;100.00;73976.13;5092950;28;20250;-78
2022/02/26 06:11:11;;;;;;;21.23;6.87;;;;;;;-145.69;100.00;73978.09;5093742;28;20223;-78
2022/02/26 06:13:37;;;;;;;20.60;6.73;;;;;;;-145.69;100.00;73966.16;5094025;28;20202;-79
2022/02/26 06:16:05;;;;;;;19.83;6.97;;;;;;;-145.69;100.00;73972.13;5094018;28;20606;-79
2022/02/26 06:18:32;;;;;;;19.40;7.17;;;;;;;-145.69;100.00;73970.16;5093683;28;20237;-78
2022/02/26 06:20:58;;;;;;;18.83;6.27;;;;;;;-145.69;100.00;73966.16;5093830;28;20206;-78
2022/02/26 06:23:26;;;;;;;22.30;6.20;;;;;;;-145.69;100.00;73954.22;5093722;28;20202;-79
2022/02/26 06:25:52;;;;;;;20.13;5.53;;;;;;;-145.69;100.00;73968.16;5079461;28;20229;-78
2022/02/26 06:28:19;;;;;;;10.63;5.40;;;;;;;-145.69;100.00;73970.16;5072215;28;20202;-79
2022/02/26 06:30:45;;;;;;;27.40;5.63;;;;;;;-145.69;100.00;73970.16;5072669;28;20199;-78
2022/02/26 06:33:13;;;;;;;15.47;5.80;;;;;;;-145.69;100.00;73966.16;5073301;28;20199;-79
2022/02/26 06:35:40;;;;;;;18.03;5.17;;;;;;;-145.69;100.00;73974.13;5072878;28;20213;-78
2022/02/26 06:38:07;;;;;;;17.60;5.23;;;;;;;-145.69;100.00;73978.09;5088822;28;20702;-78
2022/02/26 06:40:35;;;;;;;13.10;5.10;;;;;;;-145.69;100.00;73978.09;5093104;28;20202;-79
2022/02/26 06:43:01;;;;;;;13.13;5.17;;;;;;;-145.69;100.00;73982.09;5093188;28;20267;-78
2022/02/26 06:45:28;;;;;;;15.77;5.20;;;;;;;-145.69;100.00;73966.16;5093229;28;20203;-78
2022/02/26 06:47:54;;;;;;;25.10;5.97;;;;;;;-145.69;100.00;73970.16;5093267;28;20202;-78
2022/02/26 06:50:21;;;;;;;11.30;4.70;;;;;;;-145.69;100.00;73974.13;5093300;28;20194;-79
2022/02/26 06:52:47;;;;;;;13.53;4.33;;;;;;;-145.69;100.00;73968.16;5092966;28;20193;-79
2022/02/26 06:55:14;;;;;;;13.73;5.20;;;;;;;-145.69;100.00;73950.22;5093242;28;20538;-79
2022/02/26 06:57:42;;;;;;;12.30;4.50;;;;;;;-145.69;100.00;73954.22;5092838;28;20209;-78
2022/02/26 07:00:10;;;;;;;14.40;4.23;;;;;;;-145.69;100.00;73944.25;5093155;28;20224;-79
2022/02/26 07:02:37;;;;;;;15.17;4.10;;;;;;;-145.69;100.00;73950.22;5092979;28;20228;-78
2022/02/26 07:05:04;;;;;;;16.00;3.87;;;;;;;-145.69;100.00;73960.19;5093060;28;20205;-78
2022/02/26 07:07:31;;;;;;;11.30;3.90;;;;;;;-145.69;100.00;73948.25;5080556;28;20313;-79
2022/02/26 07:09:57;;;;;;;9.40;3.83;;;;;;;-145.69;100.00;73930.31;5072678;28;20203;-79
2022/02/26 07:12:24;;;;;;;11.90;3.73;;;;;;;-145.69;100.00;73930.31;5072388;28;20206;-79
2022/02/26 07:14:52;;;;;;;13.13;3.70;;;;;;;-145.69;100.00;73918.38;5072643;28;20217;-79
2022/02/26 07:17:19;;;;;;;10.13;2.97;;;;;;;-145.69;100.00;73920.38;5072631;28;20255;-79
2022/02/26 07:19:45;;;;;;;17.60;4.00;;;;;;;-145.69;100.00;73918.38;5072529;28;20226;-79
2022/02/26 07:22:12;;;;;;;8.17;3.20;;;;;;;-145.69;100.00;73902.44;5072746;28;20203;-79
2022/02/26 07:24:39;;;;;;;11.23;3.53;;;;;;;-145.69;100.00;73906.44;5072646;28;20202;-79
2022/02/26 07:27:05;;;;;;;15.97;3.80;;;;;;;-145.69;100.00;73922.34;5072611;28;20198;-78
2022/02/26 07:29:32;;;;;;;13.33;3.27;;;;;;;-145.69;100.00;73912.41;5072639;28;20210;-79
2022/02/26 07:31:59;;;;;;;15.10;2.87;;;;;;;-145.69;100.00;73916.38;5071316;28;20206;-79
2022/02/26 07:34:26;;;;;;;11.93;3.20;;;;;;;-145.69;100.00;73910.41;5072639;28;20249;-78
2022/02/26 07:36:52;;;;;;;11.53;3.53;;;;;;;-145.69;100.00;73922.34;5081473;28;20201;-78
2022/02/26 07:39:19;;;;;;;21.10;3.20;;;;;;;-145.69;100.00;73916.38;5092955;28;20230;-78
2022/02/26 07:41:45;;;;;;;15.67;3.23;;;;;;;-145.69;100.00;73914.38;5092900;28;20198;-78
2022/02/26 07:44:12;;;;;;;17.55;4.00;;;;;;;-145.69;100.00;73894.47;5091911;28;20444;-79
2022/02/26 07:46:39;;;;;;;8.27;3.20;;;;;;;-145.69;100.00;73902.44;5093068;28;20202;-78
2022/02/26 07:49:07;;;;;;;10.63;3.13;;;;;;;-145.69;100.00;73898.47;5092652;28;20204;-76
2022/02/26 07:51:33;;;;;;;9.07;2.67;;;;;;;-145.69;100.00;73882.53;5093069;28;20198;-78
2022/02/26 07:54:00;;;;;;;15.57;3.27;;;;;;;-145.69;100.00;73870.59;5092859;28;20198;-77
2022/02/26 07:56:27;;;;;;;14.20;3.00;;;;;;;-145.69;100.00;73856.66;5092849;28;20224;-77
2022/02/26 07:58:53;;;;;;;14.27;2.87;;;;;;;-145.69;100.00;73856.66;5092746;28;20589;-77
2022/02/26 08:01:20;;;;;;;8.53;2.83;;;;;;;-145.69;100.00;73832.75;5092610;28;20205;-77
2022/02/26 08:03:46;;;;;;;11.67;2.67;;;;;;;-145.69;100.00;73808.88;5092506;28;20217;-77
2022/02/26 08:06:14;;;;;;;14.43;2.53;;;;;;;-145.69;100.00;73800.91;5089708;28;20203;-77
2022/02/26 08:08:40;;;;;;;19.20;2.77;;;;;;;-145.69;98.09;73788.94;5072336;28;20235;-77
2022/02/26 08:11:07;;;;;;;10.23;2.50;;;;;;;-145.69;100.00;73786.97;5072334;28;20198;-77
2022/02/26 08:13:34;;;;;;;9.17;2.53;;;;;;;-145.69;99.44;73757.09;5072251;28;20199;-77
2022/02/26 08:16:00;;;;;;;10.27;2.47;;;;;;;-145.69;96.11;73779.00;5072293;28;20194;-77
2022/02/26 08:18:27;;;;;;;9.77;2.10;;;;;;;-145.69;93.53;73775.00;5072080;28;20276;-77
2022/02/26 08:20:53;;;;;;;11.00;2.50;;;;;;;-145.69;93.92;73767.06;5071911;28;20244;-77
2022/02/26 08:23:21;;;;;;;10.77;2.33;;;;;;;-145.69;90.94;73769.03;5073581;28;20206;-79
2022/02/26 08:25:47;;;;;;;11.57;2.43;;;;;;;-145.69;94.74;73800.91;5089835;28;20218;-79
2022/02/26 08:28:14;;;;;;;14.07;2.53;;;;;;;-145.69;94.95;73769.03;5095987;28;20198;-78
2022/02/26 08:30:40;;;;;;;13.17;2.80;;;;;;;-145.69;95.99;73794.94;5095823;28;20202;-78
2022/02/26 08:33:07;;;;;;;8.97;2.43;;;;;;;-145.69;94.21;73784.97;5095975;28;20256;-78
2022/02/26 08:35:34;;;;;;;7.23;2.67;;;;;;;-145.69;91.98;73781.00;5095954;28;20201;-79
2022/02/26 08:38:00;;;;;;;7.73;2.40;;;;;;;-145.69;91.73;73773.03;5096057;28;20198;-79
2022/02/26 08:40:28;;;;;;;9.80;2.37;;;;;;;-145.69;91.83;73804.88;5095842;28;20229;-79
2022/02/26 08:42:55;;;;;;;15.00;2.43;;;;;;;-145.69;90.36;73782.97;5095925;28;20278;-78
2022/02/26 08:45:21;;;;;;;17.37;3.00;;;;;;;-145.69;90.13;73798.91;5095718;28;20205;-79
2022/02/26 08:47:48;;;;;;;13.43;3.60;;;;;;;-145.69;91.69;73796.91;5095720;28;20205;-79
2022/02/26 08:50:17;;;;;;;5.63;2.57;;;;;;;-145.69;92.64;73798.91;5094528;28;20202;-80
2022/02/26 08:52:44;;;;;;;16.10;4.57;;;;;;;-145.69;88.83;73763.06;5095819;28;20202;-80
2022/02/26 08:55:10;;;;;;;9.73;2.77;;;;;;;-145.69;89.18;73765.06;5086392;28;20198;-80
2022/02/26 08:57:39;;;;;;;10.80;3.40;;;;;;;-145.69;88.09;73743.16;5074838;28;20442;-80
2022/02/26 09:00:08;;;;;;;14.43;3.60;;;;;;;-145.69;86.56;73731.22;5076186;28;20226;-77
2022/02/26 09:02:35;;;;;;;18.90;5.93;;;;;;;-145.69;87.31;73691.38;5074975;28;20665;-79
2022/02/26 09:05:01;;;;;;;6.57;2.27;;;;;;;-145.69;83.02;73701.34;5071768;28;20741;-77
2022/02/26 09:07:28;;;;;;;11.30;2.70;;;;;;;-145.69;86.06;73697.38;5074942;28;20218;-77
2022/02/26 09:09:54;;;;;;;11.60;2.90;;;;;;;-145.69;83.58;73695.38;5074165;28;20203;-78
2022/02/26 09:12:21;;;;;;;7.80;3.63;;;;;;;-145.69;82.36;73697.38;5074762;28;20272;-77
2022/02/26 09:14:49;;;;;;;11.57;3.77;;;;;;;-145.69;80.73;73701.34;5074533;28;20210;-77
2022/02/26 09:17:15;;;;;;;10.80;2.20;;;;;;;-145.69;83.61;73683.44;5074946;28;20199;-78
2022/02/26 09:19:42;;;;;;;8.80;2.90;;;;;;;-145.69;84.68;73675.47;5074834;28;20238;-79
2022/02/26 09:22:09;;;;;;;15.13;2.80;;;;;;;-145.69;85.38;73677.47;5074636;28;20203;-78
2022/02/26 09:24:36;;;;;;;12.10;2.80;;;;;;;-145.69;83.53;73667.50;5073552;28;20528;-79
2022/02/26 09:27:03;;;;;;;10.03;3.00;;;;;;;-145.69;85.19;73669.50;5074515;28;20456;-77
2022/02/26 09:29:29;;;;;;;9.87;2.83;;;;;;;-145.69;85.56;73667.50;5074695;28;20202;-77
2022/02/26 09:31:57;;;;;;;10.40;2.73;;;;;;;-145.69;87.12;73663.53;5074652;28;20256;-79
2022/02/26 09:34:24;;;;;;;12.03;2.70;;;;;;;-145.69;87.94;73679.44;5074276;28;20256;-79
2022/02/26 09:36:53;;;;;;;14.53;3.07;;;;;;;-145.69;89.23;73667.50;5074552;28;20198;-78
2022/02/26 09:39:20;;;;;;;12.47;3.70;;;;;;;-145.69;90.20;73627.69;5074383;28;20693;-78
2022/02/26 09:41:47;;;;;;;15.20;4.53;;;;;;;-145.69;89.02;73603.78;5074345;28;20202;-78
2022/02/26 09:44:15;;;;;;;14.07;3.17;;;;;;;-145.69;88.07;73615.72;5074322;28;20198;-79
2022/02/26 09:46:42;;;;;;;8.53;3.10;;;;;;;-145.69;83.28;73599.81;5073910;28;20206;-78
2022/02/26 09:49:10;;;;;;;9.50;3.20;;;;;;;-145.69;85.75;73538.09;5074152;28;20202;-79
2022/02/26 09:51:40;;;;;;;13.17;3.47;;;;;;;-145.69;82.64;73530.13;5074110;28;20562;-79
2022/02/26 09:54:07;;;;;;;7.37;2.80;;;;;;;-145.69;84.48;73548.03;5074005;28;20195;-79
2022/02/26 09:56:34;;;;;;;10.53;2.53;;;;;;;-145.69;83.29;73575.91;5074270;28;20202;-80
2022/02/26 09:59:00;;;;;;;10.73;3.07;;;;;;;-145.69;83.27;73603.78;5073419;28;20462;-80
2022/02/26 10:01:27;;;;;;;11.57;2.80;;;;;;;-145.69;81.53;73637.63;5074045;28;20209;-80
2022/02/26 10:04:06;;;;;;;6.80;2.80;;;;;;;-145.69;84.89;73681.44;5073952;28;20573;-79
2022/02/26 10:06:34;;;;;;;8.20;2.83;;;;;;;-145.69;84.82;73679.44;5073853;28;20252;-80
2022/02/26 10:09:02;;;;;;;10.27;2.90;;;;;;;-145.69;82.33;73671.47;5086190;28;20233;-80
2022/02/26 10:11:31;;;;;;;9.57;3.47;;;;;;;-145.69;85.22;73693.38;5093813;28;20222;-80
2022/02/26 10:13:59;;;;;;;10.30;2.77;;;;;;;-145.69;84.90;73679.44;5094037;28;20198;-79
2022/02/26 10:16:45;;;;;;;8.37;3.07;;;;;;;-145.69;82.11;73687.41;5076519;28;20199;-79
2022/02/26 10:19:12;;;;;;;13.93;3.03;;;;;;;-145.69;85.25;73673.47;5073447;28;20234;-79
2022/02/26 10:21:42;;;;;;;7.60;3.00;;;;;;;-145.69;82.37;73651.56;5073762;28;20194;-79
2022/02/26 10:24:12;;;;;;;7.90;2.43;;;;;;;-145.69;79.86;73647.59;5073526;28;20202;-80
2022/02/26 10:26:39;;;;;;;17.07;3.03;;;;;;;-145.69;80.20;73619.72;5073623;28;20199;-79
2022/02/26 10:29:10;;;;;;;7.80;3.17;;;;;;;-145.69;79.03;73599.81;5073455;28;20581;-79
2022/02/26 10:31:48;;;;;;;5.37;2.40;;;;;;;-145.69;81.90;73554.00;5073250;28;20207;-79
2022/02/26 10:34:30;;;;;;;12.17;3.00;;;;;;;-145.69;77.79;73563.97;5073346;28;20600;-79
2022/02/26 10:37:05;;;;;;;4.87;2.07;;;;;;;-145.69;75.48;73530.13;5073417;28;20214;-81
2022/02/26 10:39:34;;;;;;;8.50;2.43;;;;;;;-145.69;69.40;73544.06;5090683;28;20267;-80
2022/02/26 10:42:01;;;;;;;12.53;2.53;;;;;;;-145.69;75.25;73540.06;5093403;28;20679;-80
2022/02/26 10:44:28;;;;;;;9.98;2.83;;;;;;;-145.69;73.50;73579.91;5092822;28;20440;-80
2022/02/26 10:47:05;;;;;;;10.63;2.40;;;;;;;-145.69;74.78;73591.84;5092987;28;20209;-80
2022/02/26 10:49:32;;;;;;;6.83;2.23;;;;;;;-145.69;73.33;73625.69;5093260;28;20656;-80
2022/02/26 10:52:05;;;;;;;7.10;2.70;;;;;;;-145.69;76.31;73651.56;5093261;28;20307;-79
2022/02/26 10:54:33;;;;;;;10.07;3.30;;;;;;;-145.69;74.76;73687.41;5093269;28;20202;-80
2022/02/26 10:57:02;;;;;;;7.50;2.70;;;;;;;-145.69;75.65;73723.25;5092988;28;20255;-80
2022/02/26 10:59:31;;;;;;;7.37;2.80;;;;;;;-145.69;76.19;73727.22;5093097;28;20659;-80
2022/02/26 11:02:04;;;;;;;8.40;2.80;;;;;;;-145.69;78.80;73739.19;5091592;28;20206;-80
2022/02/26 11:04:31;;;;;;;8.67;2.50;;;;;;;-145.69;79.76;73737.19;5074938;28;20198;-80
2022/02/26 11:06:58;;;;;;;8.00;2.97;;;;;;;-145.69;78.31;73745.16;5072514;28;20570;-81